Terminal Aerodrome Forecast
Issued by NWS

Home | Current Version | Previous Version | Text Only | Print | Product List | Glossary On
Versions: 1 2 3 4 5 6 7 8 9 10 11 12 13 14 15 16 17 18 19 20 21 22 23 24 25 26
000
FTAK31 PAFA 231739
TAFABT
TAF
PABT 231739Z 2318/2418 36008KT 2SM -SN BR SCT015 OVC020
     FM232200 01006KT 3/4SM -SN BKN008 OVC015
     FM240900 02008KT 1/2SM SN BKN005 OVC015
     FM241400 11010KT 1SM -SN OVC010=

USA.gov is the U.S. government's official web portal to all federal, state and local government web resources and services.